Time;durP1;ratioP1;P1;durP2;ratioP2;P2;SDS_P1;SDS_P2;PMS_P1;PMS_P2;Temp;Humidity;BMP_temperature;BMP_pressure;BME280_temperature;BME280_humidity;BME280_pressure;Samples;Min_cycle;Max_cycle;Signal;HPM_P1;HPM_P2
2021/10/08 07:28:54;;;;;;;25.07;6.73;;;;;;;12.55;59.67;102401.41;6180202;22;1460768;-60
2021/10/08 07:31:19;;;;;;;27.60;6.00;;;;;;;12.11;59.42;102345.53;6117090;23;20218;-60
2021/10/08 07:33:45;;;;;;;17.00;5.60;;;;;;;12.71;58.83;102410.84;6116822;23;20154;-60
2021/10/08 07:36:11;;;;;;;21.40;5.90;;;;;;;12.71;58.28;102410.84;6117054;23;20597;-60
2021/10/08 07:38:39;;;;;;;24.53;6.33;;;;;;;12.81;58.05;102415.56;6117527;23;20154;-60
2021/10/08 07:41:06;;;;;;;20.00;6.13;;;;;;;12.55;57.54;102377.16;6113890;23;20205;-59
2021/10/08 07:43:33;;;;;;;23.80;5.70;;;;;;;12.84;57.78;102411.19;6108785;23;20154;-59
2021/10/08 07:45:59;;;;;;;24.73;5.33;;;;;;;12.83;57.25;102415.97;6110075;23;20186;-59
2021/10/08 07:48:24;;;;;;;25.37;5.67;;;;;;;12.91;57.20;102417.50;6111639;23;20292;-59
2021/10/08 07:50:50;;;;;;;27.67;6.00;;;;;;;12.80;56.67;102408.44;6113728;23;20566;-59
2021/10/08 07:53:15;;;;;;;28.10;5.53;;;;;;;12.70;57.36;102414.06;6115220;23;20629;-59
2021/10/08 07:55:41;;;;;;;22.87;5.63;;;;;;;12.56;57.72;102414.09;6113057;23;20162;-59
2021/10/08 07:58:06;;;;;;;21.93;5.90;;;;;;;11.98;57.18;102313.81;6115313;23;20161;-59
2021/10/08 08:00:32;;;;;;;17.77;5.73;;;;;;;12.55;56.72;102412.53;6113890;23;20500;-59
2021/10/08 08:02:57;;;;;;;21.30;5.60;;;;;;;12.56;57.45;102412.09;6106985;23;20642;-59
2021/10/08 08:05:23;;;;;;;23.57;5.17;;;;;;;12.53;57.20;102409.34;6114323;23;20178;-59
2021/10/08 08:07:50;;;;;;;26.07;5.60;;;;;;;12.17;57.05;102366.16;6114399;23;20574;-59
2021/10/08 08:10:16;;;;;;;24.60;5.70;;;;;;;12.52;56.92;102407.75;6114360;23;20168;-59
2021/10/08 08:12:42;;;;;;;18.03;5.10;;;;;;;12.31;56.92;102377.25;6111296;23;20669;-60
2021/10/08 08:15:09;;;;;;;23.57;5.40;;;;;;;12.54;56.29;102420.06;6115413;23;20143;-60
2021/10/08 08:17:34;;;;;;;24.80;5.97;;;;;;;12.67;56.83;102417.63;6113122;23;20159;-59
2021/10/08 08:20:00;;;;;;;26.20;6.60;;;;;;;12.76;56.81;102409.66;6115249;23;20184;-59
2021/10/08 08:22:25;;;;;;;28.13;5.37;;;;;;;12.91;56.36;102413.97;6113854;23;20167;-59
2021/10/08 08:24:51;;;;;;;23.30;5.73;;;;;;;12.86;55.14;102415.16;6116455;23;20182;-59
2021/10/08 08:27:16;;;;;;;24.00;5.80;;;;;;;12.75;54.94;102417.19;6118117;23;20158;-59
2021/10/08 08:29:42;;;;;;;18.33;5.10;;;;;;;12.73;55.04;102396.53;6110850;23;20206;-59
2021/10/08 08:32:09;;;;;;;22.13;5.20;;;;;;;12.84;55.23;102383.38;6118234;23;20139;-59
2021/10/08 08:34:34;;;;;;;21.47;5.60;;;;;;;12.89;54.59;102392.09;6116747;23;20234;-60
2021/10/08 08:37:00;;;;;;;19.67;5.33;;;;;;;12.96;54.21;102400.44;6117829;23;20187;-60
2021/10/08 08:39:26;;;;;;;26.70;5.90;;;;;;;12.88;54.25;102362.69;6117152;23;20151;-59
2021/10/08 08:41:51;;;;;;;25.70;5.63;;;;;;;13.20;53.63;102401.47;6116143;23;20165;-59
2021/10/08 08:44:17;;;;;;;18.77;4.90;;;;;;;13.22;54.49;102401.88;6107781;23;20189;-59
2021/10/08 08:46:44;;;;;;;24.37;5.90;;;;;;;13.37;54.27;102397.78;6103180;23;20187;-60
2021/10/08 08:49:09;;;;;;;20.90;5.17;;;;;;;13.40;54.38;102408.91;6110884;23;20191;-59
2021/10/08 08:51:35;;;;;;;28.03;6.03;;;;;;;13.21;53.88;102369.69;6117034;23;20297;-59
2021/10/08 08:54:06;;;;;;;28.23;5.90;;;;;;;13.52;54.10;102413.22;6117405;23;20169;-60
2021/10/08 08:56:32;;;;;;;22.63;5.60;;;;;;;13.36;53.59;102379.47;6118170;23;20145;-61
2021/10/08 08:59:06;;;;;;;20.03;5.57;;;;;;;13.41;52.75;102424.41;6118629;23;20601;-60
2021/10/08 09:01:32;;;;;;;28.20;5.30;;;;;;;13.52;53.83;102413.22;6119101;23;20142;-60
2021/10/08 09:04:06;;;;;;;21.57;5.10;;;;;;;13.17;52.69;102382.81;6117376;23;20241;-60
2021/10/08 09:06:34;;;;;;;25.47;6.77;;;;;;;13.43;53.60;102396.94;6118244;23;20513;-61
2021/10/08 09:09:13;;;;;;;23.93;5.27;;;;;;;13.48;52.70;102432.72;6119585;23;20159;-61
2021/10/08 09:11:39;;;;;;;26.70;5.50;;;;;;;13.35;53.93;102426.06;6115761;23;20146;-61
2021/10/08 09:14:19;;;;;;;19.30;5.30;;;;;;;13.40;53.05;102424.81;6117090;23;20155;-62
2021/10/08 09:17:19;;;;;;;25.67;5.30;;;;;;;13.54;52.87;102424.72;6114172;23;20787;-60
2021/10/08 09:19:52;;;;;;;21.97;5.40;;;;;;;13.51;51.25;102422.75;6126738;23;20293;-60
2021/10/08 09:22:21;;;;;;;25.23;5.40;;;;;;;13.63;52.23;102427.84;6119392;23;20154;-59
2021/10/08 09:24:47;;;;;;;22.77;5.67;;;;;;;13.58;51.76;102431.06;6118757;23;20187;-60
2021/10/08 09:27:15;;;;;;;24.00;5.30;;;;;;;13.54;51.20;102427.50;6115917;23;20491;-61
2021/10/08 09:29:54;;;;;;;23.30;4.90;;;;;;;13.50;50.72;102449.81;6115552;23;20313;-61
2021/10/08 09:32:22;;;;;;;15.90;4.13;;;;;;;13.54;51.32;102444.22;6118428;23;20593;-61
2021/10/08 09:35:02;;;;;;;23.30;5.77;;;;;;;13.54;53.16;102452.56;6118182;23;20842;-62
2021/10/08 09:37:28;;;;;;;19.33;5.30;;;;;;;13.39;54.74;102418.47;6114439;23;20157;-61
2021/10/08 09:39:54;;;;;;;24.30;5.73;;;;;;;13.61;55.41;102447.75;6118553;23;20160;-61
2021/10/08 09:42:21;;;;;;;28.57;6.10;;;;;;;13.58;54.33;102448.56;6100276;23;20501;-61
2021/10/08 09:44:51;;;;;;;22.97;5.63;;;;;;;13.48;54.82;102443.06;6106355;23;20222;-61
2021/10/08 09:47:22;;;;;;;30.90;5.73;;;;;;;13.47;55.22;102449.84;6108621;23;20845;-61
2021/10/08 09:49:50;;;;;;;24.43;5.83;;;;;;;13.38;55.07;102464.19;6115677;23;20243;-61
2021/10/08 09:52:19;;;;;;;20.07;5.07;;;;;;;13.36;55.22;102460.25;6117968;23;20158;-61
2021/10/08 09:55:03;;;;;;;18.93;5.97;;;;;;;13.50;56.00;102468.50;6116465;23;20189;-59
2021/10/08 09:57:48;;;;;;;19.47;4.83;;;;;;;13.46;55.58;102467.72;6117504;23;20525;-60
2021/10/08 10:00:44;;;;;;;17.63;4.73;;;;;;;13.26;56.14;102472.22;6117636;23;20186;-60
2021/10/08 10:03:12;;;;;;;21.73;5.47;;;;;;;13.28;55.98;102476.19;6118906;23;20185;-60
2021/10/08 10:05:38;;;;;;;22.60;5.23;;;;;;;13.35;55.32;102484.53;6119135;23;20178;-59
2021/10/08 10:08:04;;;;;;;15.60;5.03;;;;;;;13.11;54.72;102474.31;6119681;23;20165;-60
2021/10/08 10:10:31;;;;;;;18.70;5.30;;;;;;;13.24;56.32;102471.84;6117239;23;20305;-60
2021/10/08 10:12:59;;;;;;;19.53;5.20;;;;;;;13.34;54.86;102477.38;6118781;23;20168;-60
2021/10/08 10:15:25;;;;;;;19.13;5.40;;;;;;;13.22;54.32;102477.06;6119113;23;20162;-60
2021/10/08 10:17:51;;;;;;;25.13;4.97;;;;;;;13.20;55.15;102485.81;6116695;23;20163;-60
2021/10/08 10:20:17;;;;;;;18.87;5.13;;;;;;;13.26;55.09;102491.72;6117397;23;20254;-60
2021/10/08 10:22:43;;;;;;;20.33;5.10;;;;;;;13.35;55.43;102486.50;6117277;23;20233;-59
2021/10/08 10:25:12;;;;;;;21.07;5.03;;;;;;;13.31;54.20;102494.09;6112585;23;20742;-61
2021/10/08 10:27:44;;;;;;;26.70;5.47;;;;;;;13.38;54.34;102500.41;6112428;23;20237;-60
2021/10/08 10:30:11;;;;;;;27.97;5.53;;;;;;;13.40;54.10;102494.44;6116331;23;20198;-60
2021/10/08 10:32:42;;;;;;;17.70;5.40;;;;;;;13.38;54.21;102502.41;6116756;23;20556;-60
2021/10/08 10:35:36;;;;;;;18.00;4.83;;;;;;;13.22;54.46;102502.88;6116668;23;20154;-60
2021/10/08 10:38:23;;;;;;;19.50;5.00;;;;;;;13.20;54.81;102502.50;6117232;23;20138;-60
2021/10/08 10:41:04;;;;;;;24.43;5.93;;;;;;;12.95;55.32;102464.81;6117367;23;20169;-59
2021/10/08 10:43:32;;;;;;;25.70;6.00;;;;;;;13.06;56.16;102491.44;6117292;23;20807;-60
2021/10/08 10:46:16;;;;;;;17.33;5.27;;;;;;;13.29;57.27;102488.94;6117460;23;20206;-60
2021/10/08 10:48:46;;;;;;;26.60;5.30;;;;;;;13.26;56.52;102470.25;6117530;23;20682;-60
2021/10/08 10:51:20;;;;;;;21.73;5.10;;;;;;;12.75;57.16;102374.69;6117709;23;20481;-59
2021/10/08 10:53:49;;;;;;;18.13;5.50;;;;;;;13.31;56.86;102483.75;6116351;23;20151;-60
2021/10/08 10:56:36;;;;;;;19.33;5.33;;;;;;;13.24;57.90;102472.66;6118371;23;20645;-60
2021/10/08 10:59:23;;;;;;;18.97;5.63;;;;;;;13.31;57.86;102480.97;6119033;23;20548;-59
2021/10/08 11:02:08;;;;;;;26.30;5.70;;;;;;;13.35;59.04;102483.72;6118906;23;20209;-60
2021/10/08 11:04:42;;;;;;;25.13;6.17;;;;;;;13.38;59.82;102469.78;6118332;23;20185;-60
2021/10/08 11:07:09;;;;;;;25.40;5.53;;;;;;;13.22;60.30;102468.69;6118052;23;20167;-60
2021/10/08 11:09:36;;;;;;;18.80;5.37;;;;;;;13.05;60.61;102459.22;6117275;23;20558;-60
2021/10/08 11:12:29;;;;;;;22.00;6.00;;;;;;;12.83;61.38;102454.13;6118153;23;20170;-60
2021/10/08 11:15:16;;;;;;;26.53;5.57;;;;;;;12.88;61.97;102457.31;6118565;23;20270;-60
2021/10/08 11:17:54;;;;;;;21.97;5.77;;;;;;;12.52;62.38;102418.88;6118352;23;20221;-60
2021/10/08 11:20:25;;;;;;;25.50;5.93;;;;;;;12.74;62.37;102449.00;6118487;23;20153;-62
2021/10/08 11:22:59;;;;;;;25.93;5.93;;;;;;;12.73;61.98;102446.63;6116512;23;20249;-59
2021/10/08 11:25:25;;;;;;;18.40;5.00;;;;;;;12.08;62.07;102358.25;6118108;23;20597;-59
2021/10/08 11:27:52;;;;;;;26.47;5.07;;;;;;;12.56;62.47;102445.47;6117277;23;20154;-59
2021/10/08 11:30:19;;;;;;;24.63;5.50;;;;;;;12.52;62.59;102447.50;6116032;23;20202;-59
2021/10/08 11:32:47;;;;;;;22.97;5.90;;;;;;;12.64;62.54;102438.72;6118030;23;20154;-59
2021/10/08 11:35:18;;;;;;;19.87;5.63;;;;;;;12.76;62.50;102445.81;6116981;23;20217;-59
2021/10/08 11:37:45;;;;;;;18.77;5.57;;;;;;;12.71;62.28;102443.47;6117749;23;20229;-60
2021/10/08 11:40:13;;;;;;;21.07;5.33;;;;;;;12.53;62.19;102409.34;6119278;23;20182;-59
2021/10/08 11:42:50;;;;;;;18.40;5.07;;;;;;;12.69;61.83;102438.28;6119614;23;20158;-59
2021/10/08 11:45:19;;;;;;;20.87;5.03;;;;;;;12.37;61.57;102418.16;6118316;23;20185;-59
2021/10/08 11:47:50;;;;;;;23.10;5.27;;;;;;;12.69;61.48;102435.50;6119357;23;20189;-59
2021/10/08 11:53:00;;;;;;;25.90;5.50;;;;;;;12.69;62.47;102410.47;6118878;23;20213;-59
2021/10/08 11:55:27;;;;;;;18.97;5.03;;;;;;;12.90;62.61;102432.63;6119226;23;20150;-59
2021/10/08 11:58:00;;;;;;;28.03;5.20;;;;;;;12.98;60.92;102439.00;6120499;23;20904;-59
2021/10/08 12:00:35;;;;;;;20.07;4.67;;;;;;;12.90;61.37;102437.41;6120807;23;20229;-59
2021/10/08 12:03:12;;;;;;;22.73;5.07;;;;;;;13.06;61.67;102443.34;6120136;23;20217;-59
2021/10/08 12:05:48;;;;;;;17.10;5.00;;;;;;;13.06;62.07;102438.53;6120442;23;20184;-59
2021/10/08 12:08:17;;;;;;;20.67;5.87;;;;;;;13.12;62.42;102447.28;6120749;23;20157;-59
2021/10/08 12:11:10;;;;;;;22.13;5.23;;;;;;;13.10;61.47;102435.72;6120408;23;20150;-60
2021/10/08 12:13:39;;;;;;;27.57;8.17;;;;;;;13.17;62.45;102444.06;6121072;23;20147;-59
2021/10/08 12:16:05;;;;;;;20.53;5.07;;;;;;;13.06;61.69;102452.47;6121858;23;20178;-60
2021/10/08 12:18:31;;;;;;;20.93;5.50;;;;;;;12.71;62.10;102404.50;6118573;23;20657;-59
2021/10/08 12:21:18;;;;;;;22.10;6.50;;;;;;;13.00;64.23;102450.50;6115272;23;20158;-59
2021/10/08 12:24:02;;;;;;;25.67;6.10;;;;;;;13.07;64.65;102451.25;6120330;23;20139;-60
2021/10/08 12:26:33;;;;;;;20.03;5.67;;;;;;;12.98;64.83;102452.91;6121848;23;20151;-60
2021/10/08 12:29:01;;;;;;;21.40;6.27;;;;;;;12.89;64.42;102450.53;6120325;23;20568;-59
2021/10/08 12:31:53;;;;;;;19.40;5.80;;;;;;;12.60;64.84;102407.31;6120652;23;20209;-60
2021/10/08 12:34:32;;;;;;;21.97;5.87;;;;;;;12.98;65.38;102466.81;6121635;23;20144;-59
2021/10/08 12:36:59;;;;;;;19.63;6.20;;;;;;;12.84;65.27;102456.53;6120003;23;20155;-60
2021/10/08 12:39:24;;;;;;;23.30;6.30;;;;;;;12.76;66.20;102437.47;6121980;23;20155;-60
2021/10/08 12:44:23;;;;;;;31.50;6.73;;;;;;;12.86;66.38;102476.38;6120443;23;20164;-60
2021/10/08 12:47:46;;;;;;;20.13;6.23;;;;;;;12.86;66.16;102470.81;6121099;23;20163;-60
2021/10/08 12:50:01;;;;;;;22.03;6.07;;;;;;;12.86;66.83;102487.50;6105085;23;20632;-61
2021/10/08 12:52:35;;;;;;;23.57;5.70;;;;;;;12.87;66.01;102477.19;6120810;23;20194;-61
2021/10/08 12:55:08;;;;;;;22.00;6.10;;;;;;;12.86;66.72;102486.72;6121082;23;20224;-61
2021/10/08 12:57:34;;;;;;;22.13;6.30;;;;;;;12.73;65.94;102489.16;6120784;23;20139;-62
2021/10/08 13:00:00;;;;;;;21.93;6.63;;;;;;;12.71;65.63;102483.19;6120882;23;20147;-61
2021/10/08 13:02:43;;;;;;;25.07;6.17;;;;;;;12.61;66.29;102486.00;6121404;23;20158;-61
2021/10/08 13:05:10;;;;;;;20.57;6.63;;;;;;;12.71;66.85;102493.53;6119300;23;20186;-60
2021/10/08 13:07:35;;;;;;;18.53;6.40;;;;;;;12.69;67.58;102484.78;6119892;23;20181;-60
2021/10/08 13:10:10;;;;;;;25.90;6.97;;;;;;;12.72;68.10;102497.91;6122315;23;20596;-61
2021/10/08 13:12:43;;;;;;;28.10;7.30;;;;;;;12.68;67.73;102499.88;6121148;23;20620;-61
2021/10/08 13:15:29;;;;;;;24.20;7.60;;;;;;;12.64;67.57;102496.31;6122360;23;20213;-62
2021/10/08 13:18:03;;;;;;;22.20;8.30;;;;;;;12.64;67.19;102499.09;6121068;23;20169;-61
2021/10/08 13:20:30;;;;;;;24.53;7.70;;;;;;;12.56;67.72;102497.53;6116411;23;20281;-61
2021/10/08 13:22:56;;;;;;;26.43;7.47;;;;;;;12.61;67.50;102494.34;6119109;23;20794;-61
2021/10/08 13:25:22;;;;;;;22.30;7.37;;;;;;;12.51;68.08;102475.69;6120171;23;20257;-61
2021/10/08 13:27:47;;;;;;;26.97;7.93;;;;;;;12.62;68.01;102493.16;6117419;23;20213;-61
2021/10/08 13:30:14;;;;;;;29.57;8.33;;;;;;;12.53;67.59;102487.22;6115904;23;20280;-61
2021/10/08 13:32:39;;;;;;;23.00;7.63;;;;;;;12.42;67.17;102492.00;6120924;23;20159;-61
2021/10/08 13:35:05;;;;;;;28.17;7.63;;;;;;;12.48;67.57;102484.84;6122243;23;20538;-61
2021/10/08 13:37:31;;;;;;;24.83;7.10;;;;;;;12.39;67.90;102481.66;6120950;23;20588;-62
2021/10/08 13:39:56;;;;;;;25.77;8.10;;;;;;;12.46;67.72;102473.34;6119656;23;20173;-62
2021/10/08 13:42:22;;;;;;;21.57;7.17;;;;;;;12.40;67.34;102466.59;6121398;23;20151;-62
2021/10/08 13:44:47;;;;;;;23.03;7.20;;;;;;;12.20;67.94;102474.56;6121759;23;20624;-62
2021/10/08 13:47:13;;;;;;;20.40;6.17;;;;;;;12.23;68.10;102467.41;6121680;23;20229;-62
2021/10/08 13:49:38;;;;;;;16.23;6.20;;;;;;;12.20;68.19;102468.22;6121552;23;20656;-61
2021/10/08 13:52:07;;;;;;;19.20;6.70;;;;;;;12.10;68.17;102464.25;6121712;23;20189;-62
2021/10/08 13:54:33;;;;;;;21.97;6.80;;;;;;;12.04;68.64;102462.28;6121308;23;20245;-61
2021/10/08 13:56:58;;;;;;;16.43;7.07;;;;;;;12.01;68.89;102457.50;6122483;23;20162;-61
2021/10/08 13:59:24;;;;;;;23.03;6.73;;;;;;;12.07;69.03;102458.69;6122718;23;20157;-61
2021/10/08 14:02:04;;;;;;;24.87;6.33;;;;;;;12.00;69.15;102467.03;6122211;23;20510;-61
2021/10/08 14:04:53;;;;;;;18.77;5.93;;;;;;;11.84;68.94;102449.97;6121248;23;20505;-62
2021/10/08 14:12:29;;;;;;;21.47;6.67;;;;;;;12.00;68.95;102470.59;6122215;23;20202;-61
2021/10/08 14:14:56;;;;;;;18.90;6.57;;;;;;;12.06;68.97;102473.78;6122601;23;20182;-61
2021/10/08 14:17:22;;;;;;;22.90;6.47;;;;;;;11.90;68.69;102446.41;6122811;23;20229;-61
2021/10/08 14:19:47;;;;;;;21.30;6.17;;;;;;;12.05;69.51;102466.63;6120716;23;20204;-61
2021/10/08 14:22:13;;;;;;;19.43;6.17;;;;;;;12.10;69.99;102469.78;6121594;23;20616;-61
2021/10/08 14:24:38;;;;;;;23.17;6.67;;;;;;;11.97;69.93;102451.16;6122681;23;20159;-61
2021/10/08 14:27:04;;;;;;;18.67;6.77;;;;;;;12.06;70.04;102462.66;6122581;23;20153;-61
2021/10/08 14:29:29;;;;;;;22.57;6.90;;;;;;;12.00;69.96;102458.69;6122216;23;20206;-62
2021/10/08 14:31:55;;;;;;;15.43;6.60;;;;;;;12.05;70.11;102461.09;6121740;23;20162;-61
2021/10/08 14:34:20;;;;;;;19.37;6.80;;;;;;;11.96;70.06;102469.03;6122538;23;20161;-62
2021/10/08 14:36:46;;;;;;;19.97;7.17;;;;;;;11.79;69.74;102447.59;6122494;23;20164;-62
2021/10/08 14:39:11;;;;;;;21.17;6.50;;;;;;;11.95;69.73;102470.22;6120718;23;20248;-61
2021/10/08 14:41:37;;;;;;;16.47;6.13;;;;;;;11.85;69.80;102459.91;6121929;23;20158;-61
2021/10/08 14:44:03;;;;;;;22.43;7.00;;;;;;;11.71;70.13;102463.47;6122495;23;20150;-62
2021/10/08 14:46:28;;;;;;;18.27;6.40;;;;;;;11.50;70.26;102432.06;6124772;23;20166;-63
2021/10/08 14:48:55;;;;;;;17.90;6.43;;;;;;;11.63;70.79;102455.53;6124589;23;20153;-62
2021/10/08 14:51:26;;;;;;;21.33;7.33;;;;;;;11.75;71.01;102469.03;6123711;23;20664;-61
2021/10/08 14:53:52;;;;;;;25.23;6.37;;;;;;;11.84;70.89;102472.97;6124832;23;20181;-62
2021/10/08 14:56:30;;;;;;;21.13;7.13;;;;;;;11.88;70.84;102459.91;6124659;23;20150;-61
2021/10/08 14:58:55;;;;;;;19.90;6.70;;;;;;;11.84;70.83;102469.44;6124273;23;20138;-62
2021/10/08 15:01:24;;;;;;;20.80;6.53;;;;;;;11.59;70.83;102469.38;6122094;23;20220;-61
2021/10/08 15:03:50;;;;;;;19.83;6.20;;;;;;;11.45;70.66;102474.91;6122435;23;20154;-62
2021/10/08 15:06:15;;;;;;;23.60;6.07;;;;;;;11.55;70.78;102468.59;6122240;23;20828;-61
2021/10/08 15:08:41;;;;;;;18.63;5.70;;;;;;;11.57;70.60;102468.97;6123346;23;20192;-62
2021/10/08 15:11:06;;;;;;;21.90;6.53;;;;;;;11.20;70.68;102437.16;6122013;23;20153;-61
2021/10/08 15:13:32;;;;;;;17.87;6.30;;;;;;;11.56;70.83;102477.69;6124057;23;20241;-61
2021/10/08 15:15:57;;;;;;;18.27;5.53;;;;;;;11.56;70.53;102472.94;6124023;23;20158;-61
2021/10/08 15:18:23;;;;;;;20.70;5.50;;;;;;;11.58;70.74;102490.00;6121306;23;20157;-61
2021/10/08 15:20:48;;;;;;;21.83;5.67;;;;;;;11.59;70.81;102486.06;6121087;23;20165;-62
2021/10/08 15:23:14;;;;;;;26.50;6.47;;;;;;;11.59;70.59;102488.06;6121677;23;20154;-62
2021/10/08 15:25:39;;;;;;;24.67;5.70;;;;;;;11.31;70.96;102440.75;6121836;23;20600;-61
2021/10/08 15:28:05;;;;;;;20.13;5.63;;;;;;;11.21;71.03;102447.88;6121509;23;20157;-62
2021/10/08 15:30:30;;;;;;;26.50;5.67;;;;;;;11.50;70.43;102484.81;6121980;23;20220;-62
2021/10/08 15:32:56;;;;;;;16.97;5.70;;;;;;;11.50;70.98;102498.72;6120897;23;20158;-62
2021/10/08 15:35:21;;;;;;;23.47;5.83;;;;;;;11.37;70.96;102495.50;6120190;23;20147;-62
2021/10/08 15:37:47;;;;;;;20.77;6.63;;;;;;;11.14;71.29;102469.28;6121812;23;20150;-62
2021/10/08 15:40:13;;;;;;;19.00;5.60;;;;;;;11.44;71.05;102503.06;6122002;23;20154;-62
2021/10/08 15:42:39;;;;;;;28.30;5.93;;;;;;;11.50;70.85;102502.28;6121571;23;20519;-62
2021/10/08 15:45:07;;;;;;;28.33;6.57;;;;;;;11.47;71.14;102496.72;6121878;23;20201;-62
2021/10/08 15:47:33;;;;;;;19.20;5.03;;;;;;;11.38;71.08;102510.97;6110522;23;20193;-62
2021/10/08 15:49:59;;;;;;;24.63;6.23;;;;;;;11.41;71.15;102504.63;6121644;23;20154;-62
2021/10/08 15:52:25;;;;;;;21.77;5.83;;;;;;;11.34;71.37;102510.19;6121362;23;20245;-62
2021/10/08 15:54:50;;;;;;;22.77;5.40;;;;;;;11.30;71.71;102511.34;6122188;23;20201;-62
2021/10/08 15:57:16;;;;;;;24.83;5.30;;;;;;;11.40;71.38;102510.56;6121799;23;20265;-62
2021/10/08 15:59:41;;;;;;;22.60;5.43;;;;;;;11.43;70.92;102509.81;6122098;23;20208;-58
2021/10/08 16:02:07;;;;;;;22.40;5.77;;;;;;;11.31;70.84;102501.81;6121294;23;20162;-60
2021/10/08 16:04:32;;;;;;;19.47;4.60;;;;;;;10.16;70.67;102333.81;6122018;23;20233;-59
2021/10/08 16:06:58;;;;;;;23.53;5.00;;;;;;;11.42;70.99;102516.56;6121770;23;20159;-59
2021/10/08 16:09:23;;;;;;;23.27;5.27;;;;;;;11.33;70.63;102505.78;6121921;23;20155;-60
2021/10/08 16:11:49;;;;;;;29.97;5.63;;;;;;;11.22;70.48;102531.94;6121346;23;20159;-59
2021/10/08 16:14:16;;;;;;;26.67;5.43;;;;;;;11.19;70.92;102527.97;6122043;23;20159;-59
2021/10/08 16:16:53;;;;;;;24.63;5.53;;;;;;;11.29;71.02;102532.78;6121946;23;20523;-59
2021/10/08 16:19:20;;;;;;;27.03;5.80;;;;;;;11.21;70.74;102533.91;6120486;23;20493;-60
2021/10/08 16:21:48;;;;;;;24.60;4.80;;;;;;;11.07;70.95;102535.84;6121404;23;20180;-62
2021/10/08 16:24:14;;;;;;;23.60;5.27;;;;;;;10.51;71.24;102452.38;6121561;23;20178;-62
2021/10/08 16:26:41;;;;;;;29.10;6.10;;;;;;;11.04;71.46;102536.63;6122024;23;20621;-60
2021/10/08 16:29:06;;;;;;;23.70;5.10;;;;;;;11.02;71.65;102539.78;6119392;23;20268;-60
2021/10/08 16:31:33;;;;;;;28.50;5.80;;;;;;;10.94;71.81;102526.25;6120962;23;20243;-60
2021/10/08 16:34:01;;;;;;;24.30;5.37;;;;;;;11.10;71.87;102543.38;6121517;23;20182;-60
2021/10/08 16:36:28;;;;;;;24.27;5.10;;;;;;;10.86;71.69;102516.34;6121679;23;20150;-60
2021/10/08 16:38:54;;;;;;;24.03;5.67;;;;;;;11.00;71.98;102544.13;6121636;23;20162;-60
2021/10/08 16:41:19;;;;;;;24.57;5.70;;;;;;;11.07;72.40;102561.59;6121172;23;20508;-59
2021/10/08 16:43:45;;;;;;;20.23;4.80;;;;;;;10.78;72.05;102500.81;6123611;23;20157;-60
2021/10/08 16:46:10;;;;;;;25.07;5.27;;;;;;;11.20;72.68;102551.75;6121553;23;20190;-59
2021/10/08 16:48:36;;;;;;;23.40;5.37;;;;;;;10.81;72.21;102502.84;6123462;23;20186;-59
2021/10/08 16:51:01;;;;;;;19.73;4.93;;;;;;;10.81;73.13;102527.81;6122976;23;20158;-59
2021/10/08 16:53:27;;;;;;;21.73;5.30;;;;;;;11.21;72.40;102558.91;6122679;23;20158;-59
2021/10/08 16:55:53;;;;;;;23.87;5.37;;;;;;;11.08;72.59;102535.47;6123135;23;20593;-60
2021/10/08 16:58:18;;;;;;;19.13;4.90;;;;;;;11.30;72.08;102569.63;6123170;23;20733;-59
2021/10/08 17:00:44;;;;;;;19.43;5.10;;;;;;;11.15;71.80;102559.66;6123047;23;20181;-59
2021/10/08 17:03:10;;;;;;;26.53;6.00;;;;;;;11.12;72.26;102577.09;6123041;23;20178;-59
2021/10/08 17:05:36;;;;;;;18.20;5.13;;;;;;;10.81;72.09;102522.25;6123478;23;20633;-59
2021/10/08 17:08:03;;;;;;;22.57;5.20;;;;;;;11.05;72.27;102580.63;6123262;23;20252;-59
2021/10/08 17:10:28;;;;;;;23.50;5.40;;;;;;;10.95;72.22;102569.47;6123520;23;20155;-58
2021/10/08 17:12:54;;;;;;;25.33;5.73;;;;;;;10.86;72.33;102538.53;6122696;23;20150;-59
2021/10/08 17:15:20;;;;;;;21.63;5.73;;;;;;;11.09;72.48;102583.41;6123342;23;20170;-58
2021/10/08 17:17:45;;;;;;;23.83;5.13;;;;;;;11.10;72.48;102593.31;6123168;23;20153;-59
2021/10/08 17:20:11;;;;;;;28.57;6.00;;;;;;;11.21;72.80;102588.63;6121677;23;20158;-58
2021/10/08 17:22:41;;;;;;;24.37;5.23;;;;;;;11.24;72.31;102585.88;6122723;23;20154;-58
2021/10/08 17:25:13;;;;;;;20.17;5.87;;;;;;;11.16;72.11;102594.53;6123079;23;20163;-58
2021/10/08 17:27:45;;;;;;;27.60;6.83;;;;;;;11.21;72.02;102589.44;6123344;23;20134;-59
2021/10/08 17:35:21;;;;;;;20.73;5.93;;;;;;;11.07;72.41;102594.91;6123055;23;20271;-59
2021/10/08 17:37:47;;;;;;;23.07;5.90;;;;;;;11.01;72.04;102604.00;6123394;23;20154;-59
2021/10/08 17:40:13;;;;;;;18.87;5.87;;;;;;;11.13;72.23;102604.44;6122988;23;20549;-59
2021/10/08 17:42:38;;;;;;;22.47;6.33;;;;;;;10.97;71.68;102605.94;6122302;23;20150;-58
2021/10/08 17:45:04;;;;;;;21.97;5.93;;;;;;;11.06;71.58;102611.97;6122926;23;20150;-58
2021/10/08 17:47:31;;;;;;;27.87;6.37;;;;;;;11.12;71.78;102613.19;6123154;23;20214;-59
2021/10/08 17:49:57;;;;;;;20.37;6.17;;;;;;;10.97;71.74;102592.84;6122753;23;20174;-58
2021/10/08 17:52:23;;;;;;;20.80;5.63;;;;;;;11.12;71.52;102613.19;6122810;23;20605;-58
2021/10/08 17:54:48;;;;;;;23.17;5.47;;;;;;;11.07;71.37;102616.31;6122796;23;20182;-59
2021/10/08 17:57:14;;;;;;;20.23;6.40;;;;;;;10.95;71.61;102608.31;6122259;23;20201;-59
2021/10/08 17:59:40;;;;;;;22.53;5.93;;;;;;;10.95;71.92;102611.88;6123092;23;20165;-58
2021/10/08 18:02:12;;;;;;;20.63;5.97;;;;;;;10.96;71.87;102619.00;6122233;23;20612;-58
2021/10/08 18:04:38;;;;;;;26.47;6.53;;;;;;;10.88;71.94;102619.38;6122994;23;20139;-58
2021/10/08 18:07:03;;;;;;;25.17;7.17;;;;;;;10.82;72.07;102607.81;6122867;23;20580;-58
2021/10/08 18:09:28;;;;;;;24.43;6.33;;;;;;;10.91;71.82;102619.38;6122809;23;20559;-58
2021/10/08 18:11:54;;;;;;;17.93;6.00;;;;;;;11.00;72.33;102621.81;6122180;23;20166;-59
2021/10/08 18:14:20;;;;;;;25.33;6.27;;;;;;;10.92;71.92;102617.41;6123499;23;20150;-58
2021/10/08 18:16:46;;;;;;;23.27;6.53;;;;;;;10.94;72.38;102623.34;6122813;23;20156;-58
2021/10/08 18:19:12;;;;;;;19.53;6.20;;;;;;;10.65;72.23;102577.22;6121262;23;20156;-58
2021/10/08 18:21:37;;;;;;;24.10;6.50;;;;;;;10.95;72.13;102627.72;6121969;23;20153;-59
2021/10/08 18:24:04;;;;;;;22.83;6.80;;;;;;;10.89;71.61;102632.84;6122605;23;20309;-58
2021/10/08 18:26:49;;;;;;;20.23;6.47;;;;;;;10.79;72.46;102614.16;6122697;23;20158;-59
2021/10/08 18:29:35;;;;;;;20.87;7.10;;;;;;;10.87;72.20;102626.88;6120474;23;20209;-58
2021/10/08 18:32:01;;;;;;;26.17;6.80;;;;;;;10.75;72.38;102593.09;6121867;23;20191;-58
2021/10/08 18:34:27;;;;;;;21.67;7.20;;;;;;;10.94;72.37;102634.47;6122888;23;20153;-59
2021/10/08 18:36:52;;;;;;;23.37;5.97;;;;;;;10.95;72.01;102634.06;6122451;23;20155;-58
2021/10/08 18:39:18;;;;;;;21.10;6.13;;;;;;;10.78;72.12;102604.25;6122552;23;20161;-59
2021/10/08 18:41:44;;;;;;;22.90;5.57;;;;;;;10.98;72.10;102630.53;6122104;23;20219;-59
2021/10/08 18:44:09;;;;;;;18.53;6.07;;;;;;;11.00;72.30;102627.34;6122419;23;20600;-58
2021/10/08 18:46:36;;;;;;;22.57;6.53;;;;;;;10.97;71.83;102630.91;6120981;23;20189;-59
2021/10/08 18:49:05;;;;;;;21.40;5.67;;;;;;;10.92;71.92;102642.38;6121938;23;20235;-59
2021/10/08 18:51:31;;;;;;;21.93;6.73;;;;;;;10.35;72.03;102571.06;6122104;23;20578;-58
2021/10/08 18:53:58;;;;;;;22.17;6.40;;;;;;;10.92;72.52;102642.38;6121965;23;20165;-59
2021/10/08 18:56:24;;;;;;;20.17;6.37;;;;;;;10.82;72.38;102643.09;6122864;23;20163;-59
2021/10/08 18:58:52;;;;;;;21.80;6.33;;;;;;;10.60;72.66;102599.78;6122131;23;20182;-58
2021/10/08 19:01:18;;;;;;;22.90;6.60;;;;;;;10.48;72.47;102608.38;6121907;23;20495;-58
2021/10/08 19:03:47;;;;;;;25.97;6.00;;;;;;;10.76;72.89;102641.88;6122608;23;20155;-59
2021/10/08 19:06:14;;;;;;;25.17;6.83;;;;;;;10.60;72.54;102630.25;6121842;23;20184;-58
2021/10/08 19:08:42;;;;;;;20.80;6.50;;;;;;;10.49;73.09;102644.03;6122178;23;20163;-58